createdAt,value
2023-04-10T00:00:46.340Z,6.38
2023-04-10T00:03:34.343Z,6.20
2023-04-10T00:06:22.139Z,6.33
2023-04-10T00:09:10.895Z,6.26
2023-04-10T00:11:58.666Z,6.12
2023-04-10T00:14:46.425Z,6.12
2023-04-10T00:17:34.296Z,6.12
2023-04-10T00:20:26.577Z,6.15
2023-04-10T00:23:14.352Z,6.04
2023-04-10T00:26:02.099Z,5.86
2023-04-10T00:28:49.968Z,5.94
2023-04-10T00:31:37.767Z,5.92
2023-04-10T00:34:26.052Z,5.62
2023-04-10T00:37:13.665Z,5.82
2023-04-10T00:40:01.481Z,5.78
2023-04-10T00:42:49.112Z,5.42
2023-04-10T00:45:38.000Z,5.72
2023-04-10T00:48:26.532Z,5.71
2023-04-10T00:51:15.092Z,5.53
2023-04-10T00:54:03.077Z,5.80
2023-04-10T00:56:51.242Z,5.73
2023-04-10T00:59:39.002Z,5.69
2023-04-10T01:02:27.314Z,5.64
2023-04-10T01:05:15.169Z,5.47
2023-04-10T01:08:24.676Z,5.70
2023-04-10T01:11:35.089Z,5.62
2023-04-10T01:14:54.857Z,5.35
2023-04-10T01:18:33.711Z,5.52
2023-04-10T01:21:22.891Z,5.52
2023-04-10T01:24:38.000Z,5.55
2023-04-10T01:27:44.517Z,5.55
2023-04-10T01:30:36.319Z,5.22
2023-04-10T01:33:31.085Z,5.37
2023-04-10T01:36:24.416Z,5.31
2023-04-10T01:39:13.285Z,5.24
2023-04-10T01:42:01.418Z,5.24
2023-04-10T01:44:59.735Z,5.08
2023-04-10T01:47:48.902Z,4.91
2023-04-10T01:50:37.743Z,5.01
2023-04-10T01:53:25.906Z,5.08
2023-04-10T01:56:14.430Z,5.03
2023-04-10T01:59:05.866Z,5.29
2023-04-10T02:01:58.468Z,5.16
2023-04-10T02:04:51.778Z,5.22
2023-04-10T02:08:06.173Z,5.12
2023-04-10T02:11:04.363Z,5.07
2023-04-10T02:13:54.431Z,4.88
2023-04-10T02:16:43.714Z,4.83
2023-04-10T02:19:34.965Z,5.03
2023-04-10T02:22:26.013Z,4.52
2023-04-10T02:25:14.714Z,4.81
2023-04-10T02:28:06.733Z,4.91
2023-04-10T02:30:54.610Z,4.84
2023-04-10T02:33:42.278Z,4.87
2023-04-10T02:36:30.086Z,4.74
2023-04-10T02:39:17.930Z,4.89
2023-04-10T02:42:12.247Z,4.86
2023-04-10T02:45:01.358Z,4.81
2023-04-10T02:47:55.177Z,4.79
2023-04-10T02:50:46.932Z,4.71
2023-04-10T02:53:34.971Z,4.44
2023-04-10T02:56:22.839Z,4.79
2023-04-10T02:59:10.661Z,4.56
2023-04-10T03:01:58.531Z,4.81
2023-04-10T03:04:46.529Z,4.83
2023-04-10T03:07:34.245Z,4.64
2023-04-10T03:10:22.037Z,4.61
2023-04-10T03:13:09.758Z,4.71
2023-04-10T03:15:57.772Z,4.16
2023-04-10T03:18:46.546Z,4.69
2023-04-10T03:21:34.438Z,4.66
2023-04-10T03:24:13.766Z,4.44
2023-04-10T03:27:04.581Z,4.71
2023-04-10T03:29:54.560Z,4.75
2023-04-10T03:32:45.056Z,4.65
2023-04-10T03:35:32.878Z,4.85
2023-04-10T03:38:23.528Z,4.94
2023-04-10T03:41:11.605Z,4.75
2023-04-10T03:44:00.779Z,4.83
2023-04-10T03:46:50.257Z,4.89
2023-04-10T03:49:39.139Z,4.91
2023-04-10T03:52:28.624Z,5.03
2023-04-10T03:55:20.654Z,5.15
2023-04-10T03:58:09.677Z,5.17
2023-04-10T04:00:58.483Z,5.09
2023-04-10T04:03:56.547Z,5.10
2023-04-10T04:07:02.925Z,5.08
2023-04-10T04:10:07.688Z,5.10
2023-04-10T04:13:12.725Z,5.30
2023-04-10T04:16:11.434Z,5.30
2023-04-10T04:19:07.404Z,5.35
2023-04-10T04:22:11.581Z,5.29
2023-04-10T04:25:18.554Z,4.94
2023-04-10T04:28:16.270Z,5.29
2023-04-10T04:31:21.282Z,5.20
2023-04-10T04:34:35.092Z,5.51
2023-04-10T04:37:38.125Z,5.56
2023-04-10T04:40:44.323Z,5.75
2023-04-10T04:43:58.676Z,5.80
2023-04-10T04:46:56.993Z,5.89
2023-04-10T04:49:44.822Z,5.98
2023-04-10T04:52:46.054Z,5.89
2023-04-10T04:55:52.278Z,6.03
2023-04-10T04:59:18.368Z,6.15
2023-04-10T05:02:38.617Z,6.05
2023-04-10T05:05:48.807Z,6.35
2023-04-10T05:09:02.543Z,6.51
2023-04-10T05:12:13.086Z,6.67
2023-04-10T05:15:27.120Z,6.94
2023-04-10T05:18:26.626Z,7.12
2023-04-10T05:21:33.234Z,7.01
2023-04-10T05:24:39.331Z,7.41
2023-04-10T05:27:32.770Z,7.51
2023-04-10T05:30:36.240Z,7.69
2023-04-10T05:33:42.536Z,7.66
2023-04-10T05:36:44.743Z,7.72
2023-04-10T05:39:58.539Z,7.78
2023-04-10T05:42:56.299Z,8.24
2023-04-10T05:45:50.175Z,7.43
2023-04-10T05:48:56.643Z,7.95
2023-04-10T05:51:59.398Z,7.67
2023-04-10T05:54:58.652Z,7.60
2023-04-10T05:58:06.694Z,7.90
2023-04-10T06:01:13.806Z,8.36
2023-04-10T06:04:04.173Z,8.52
2023-04-10T06:06:54.204Z,8.65
2023-04-10T06:09:42.063Z,8.39
2023-04-10T06:12:30.961Z,8.39
2023-04-10T06:15:19.208Z,8.79
2023-04-10T06:18:07.568Z,9.14
2023-04-10T06:21:00.584Z,9.43
2023-04-10T06:23:48.325Z,9.55
2023-04-10T06:26:36.150Z,9.50
2023-04-10T06:29:25.180Z,9.83
2023-04-10T06:32:13.073Z,9.58
2023-04-10T06:35:01.206Z,9.41
2023-04-10T06:37:49.212Z,9.83
2023-04-10T06:40:37.102Z,9.32
2023-04-10T06:43:24.887Z,9.78
2023-04-10T06:46:13.033Z,9.73
2023-04-10T06:49:00.930Z,10.06
2023-04-10T06:51:48.722Z,10.54
2023-04-10T06:54:36.794Z,11.38
2023-04-10T06:57:24.648Z,11.46
2023-04-10T07:00:13.183Z,11.04
2023-04-10T07:03:00.870Z,10.73
2023-04-10T07:05:48.709Z,11.70
2023-04-10T07:08:36.538Z,12.07
2023-04-10T07:11:24.283Z,11.86
2023-04-10T07:14:12.195Z,11.56
2023-04-10T07:16:59.989Z,11.75
2023-04-10T07:19:47.593Z,11.90
2023-04-10T07:22:35.382Z,11.47
2023-04-10T07:25:23.360Z,11.69
2023-04-10T07:28:11.536Z,12.35
2023-04-10T07:30:59.363Z,12.27
2023-04-10T07:33:47.341Z,12.55
2023-04-10T07:36:35.107Z,12.59
2023-04-10T07:39:23.341Z,12.73
2023-04-10T07:42:11.928Z,13.34
2023-04-10T07:44:59.746Z,13.10
2023-04-10T07:47:47.503Z,12.78
2023-04-10T08:26:21.710Z,14.56
2023-04-10T08:29:09.432Z,14.55
2023-04-10T08:32:00.764Z,13.91
2023-04-10T08:34:50.165Z,13.96
2023-04-10T08:37:37.825Z,14.16
2023-04-10T08:40:25.573Z,14.00
2023-04-10T08:43:13.365Z,14.90
2023-04-10T08:46:02.345Z,15.08
2023-04-10T08:49:02.978Z,15.33
2023-04-10T08:51:59.040Z,14.96
2023-04-10T08:54:51.245Z,14.34
2023-04-10T08:57:42.829Z,15.04
2023-04-10T09:00:38.831Z,14.90
2023-04-10T09:03:27.817Z,14.87
2023-04-10T09:06:15.777Z,15.62
2023-04-10T09:09:03.663Z,15.60
2023-04-10T09:11:56.819Z,15.95
2023-04-10T09:14:44.612Z,15.96
2023-04-10T09:17:32.391Z,16.18
2023-04-10T09:20:24.615Z,16.33
2023-04-10T09:23:22.380Z,16.30
2023-04-10T09:26:24.608Z,16.28
2023-04-10T09:29:12.680Z,15.47
2023-04-10T09:32:00.706Z,16.19
2023-04-10T09:34:58.746Z,16.39
2023-04-10T09:37:47.154Z,17.08
2023-04-10T09:40:34.876Z,16.09
2023-04-10T09:43:25.205Z,15.59
2023-04-10T09:46:13.356Z,15.43
2023-04-10T09:49:07.895Z,15.98
2023-04-10T09:51:56.668Z,16.35
2023-04-10T09:54:44.272Z,17.14
2023-04-10T09:57:34.559Z,17.70
2023-04-10T10:00:22.165Z,17.63
2023-04-10T10:03:17.509Z,17.12
2023-04-10T10:06:05.624Z,16.96
2023-04-10T10:08:54.182Z,16.36
2023-04-10T10:11:42.127Z,17.51
2023-04-10T10:14:32.430Z,16.14
2023-04-10T10:17:24.510Z,15.55
2023-04-10T10:20:13.624Z,16.53
2023-04-10T10:23:04.426Z,17.22
2023-04-10T10:25:54.600Z,17.48
2023-04-10T10:28:43.165Z,18.21
2023-04-10T10:31:37.548Z,17.97
2023-04-10T10:34:25.980Z,16.83
2023-04-10T10:37:14.496Z,16.41
2023-04-10T10:40:12.943Z,16.86
2023-04-10T10:43:16.955Z,16.77
2023-04-10T10:46:13.109Z,16.90
2023-04-10T10:50:18.563Z,17.64
2023-04-10T10:53:35.187Z,17.13
2023-04-10T10:56:32.938Z,17.91
2023-04-10T10:59:49.345Z,18.51
2023-04-10T11:02:45.445Z,18.72
2023-04-10T11:06:04.123Z,17.59
2023-04-10T11:08:53.554Z,17.85
2023-04-10T11:12:12.875Z,17.92
2023-04-10T11:15:04.731Z,18.58
2023-04-10T11:17:54.609Z,19.01
2023-04-10T11:21:10.983Z,18.67
2023-04-10T11:23:58.741Z,18.09
2023-04-10T11:26:47.404Z,17.52
2023-04-10T11:29:35.294Z,17.47
2023-04-10T11:32:22.956Z,18.27
2023-04-10T11:35:12.099Z,18.78
2023-04-10T11:38:10.500Z,17.81
2023-04-10T11:41:01.965Z,17.73
2023-04-10T11:44:01.822Z,17.55
2023-04-10T11:47:00.181Z,17.78
2023-04-10T11:49:55.964Z,17.21
2023-04-10T11:55:45.176Z,16.55
2023-04-10T11:58:32.947Z,16.16
2023-04-10T12:01:22.737Z,15.62
2023-04-10T12:04:18.876Z,15.98
2023-04-10T12:07:06.768Z,16.31
2023-04-10T12:10:00.809Z,16.01
2023-04-10T12:12:48.495Z,16.25
2023-04-10T12:15:36.667Z,16.11
2023-04-10T12:18:24.547Z,15.43
2023-04-10T12:21:12.535Z,15.80
2023-04-10T12:24:00.094Z,16.65
2023-04-10T12:26:50.012Z,16.74
2023-04-10T12:29:37.691Z,16.78
2023-04-10T12:32:27.729Z,16.48
2023-04-10T12:35:15.696Z,16.31
2023-04-10T12:38:03.559Z,16.64
2023-04-10T12:41:01.476Z,16.57
2023-04-10T12:43:49.852Z,16.03
2023-04-10T12:46:38.293Z,15.81
2023-04-10T12:49:36.386Z,15.95
2023-04-10T12:52:24.073Z,16.34
2023-04-10T12:55:16.752Z,16.89
2023-04-10T12:58:18.269Z,17.64
2023-04-10T13:01:09.442Z,18.23
2023-04-10T13:03:57.114Z,18.30
2023-04-10T13:06:49.024Z,17.74
2023-04-10T13:09:37.393Z,17.34
2023-04-10T13:12:29.257Z,16.45
2023-04-10T13:15:17.226Z,17.30
2023-04-10T13:18:07.374Z,17.18
2023-04-10T13:20:55.192Z,16.90
2023-04-10T13:23:42.996Z,17.20
2023-04-10T13:26:30.762Z,16.93
2023-04-10T13:29:18.505Z,17.18
2023-04-10T13:32:30.532Z,16.99
2023-04-10T13:36:22.824Z,16.88
2023-04-10T13:39:10.803Z,17.05
2023-04-10T13:42:27.744Z,17.54
2023-04-10T13:45:16.010Z,17.60
2023-04-10T13:48:04.247Z,17.11
2023-04-10T13:50:52.056Z,16.79
2023-04-10T13:53:39.822Z,16.70
2023-04-10T13:56:27.462Z,16.59
2023-04-10T13:59:15.307Z,16.65
2023-04-10T14:02:02.994Z,16.28
2023-04-10T14:04:51.665Z,16.00
2023-04-10T14:07:39.433Z,16.04
2023-04-10T14:10:27.315Z,15.97
2023-04-10T14:13:14.981Z,15.80
2023-04-10T14:16:04.458Z,15.73
2023-04-10T14:18:52.182Z,15.50
2023-04-10T14:21:41.126Z,15.96
2023-04-10T14:24:35.881Z,15.53
2023-04-10T14:27:23.705Z,15.15
2023-04-10T14:30:11.833Z,14.64
2023-04-10T14:32:59.806Z,14.49
2023-04-10T14:35:48.302Z,14.57
2023-04-10T14:38:37.042Z,13.98
2023-04-10T14:41:24.703Z,14.23
2023-04-10T14:44:12.394Z,14.11
2023-04-10T14:47:00.037Z,14.18
2023-04-10T14:49:47.949Z,14.13
2023-04-10T14:52:35.775Z,14.16
2023-04-10T14:55:24.893Z,14.24
2023-04-10T14:58:14.932Z,13.92
2023-04-10T15:01:02.737Z,13.92
2023-04-10T15:03:53.931Z,14.01
2023-04-10T15:06:42.001Z,13.97
2023-04-10T15:09:29.703Z,14.05
2023-04-10T15:12:17.647Z,14.22
2023-04-10T15:15:08.727Z,13.73
2023-04-10T15:17:56.488Z,13.97
2023-04-10T15:20:44.341Z,13.65
2023-04-10T15:23:34.816Z,13.65
2023-04-10T15:26:25.061Z,13.59
2023-04-10T15:29:13.753Z,13.45
2023-04-10T15:32:04.461Z,12.99
2023-04-10T15:34:52.134Z,12.69
2023-04-10T15:37:39.892Z,12.52
2023-04-10T15:40:33.437Z,12.45
2023-04-10T15:43:27.218Z,12.39
2023-04-10T15:46:17.411Z,12.13
2023-04-10T15:49:06.901Z,11.90
2023-04-10T15:51:54.736Z,11.62
2023-04-10T15:54:45.595Z,11.51
2023-04-10T15:57:38.741Z,10.83
2023-04-10T16:00:37.625Z,11.09
2023-04-10T16:03:30.238Z,11.20
2023-04-10T16:06:21.561Z,11.34
2023-04-10T16:12:06.388Z,11.18
2023-04-10T16:18:12.166Z,11.09
2023-04-10T16:20:59.898Z,11.01
2023-04-10T16:23:50.349Z,10.80
2023-04-10T16:26:38.097Z,11.01
2023-04-10T16:29:25.694Z,10.76
2023-04-10T16:32:13.495Z,10.99
2023-04-10T16:35:01.379Z,10.93
2023-04-10T16:37:49.202Z,10.87
2023-04-10T16:40:40.041Z,10.76
2023-04-10T16:43:27.768Z,10.80
2023-04-10T16:46:15.778Z,10.74
2023-04-10T16:49:04.194Z,10.73
2023-04-10T16:51:51.895Z,10.67
2023-04-10T16:54:42.988Z,10.80
2023-04-10T16:57:31.249Z,10.54
2023-04-10T17:00:22.136Z,10.70
2023-04-10T17:03:10.214Z,10.61
2023-04-10T17:05:58.368Z,10.49
2023-04-10T17:08:46.310Z,10.37
2023-04-10T17:11:34.021Z,10.34
2023-04-10T17:14:21.818Z,10.15
2023-04-10T17:17:09.550Z,10.09
2023-04-10T17:20:10.092Z,10.07
2023-04-10T17:22:58.005Z,9.77
2023-04-10T17:25:45.811Z,10.18
2023-04-10T17:28:34.259Z,10.11
2023-04-10T17:31:22.114Z,10.06
2023-04-10T17:34:10.275Z,9.98
2023-04-10T17:36:58.141Z,9.77
2023-04-10T17:39:46.644Z,10.06
2023-04-10T17:42:34.449Z,10.04
2023-04-10T17:45:24.210Z,10.05
2023-04-10T17:48:14.806Z,9.86
2023-04-10T17:51:14.851Z,10.06
2023-04-10T17:54:04.843Z,9.94
2023-04-10T17:56:57.108Z,9.21
2023-04-10T17:59:44.650Z,9.87
2023-04-10T18:02:32.380Z,9.61
2023-04-10T18:05:20.172Z,9.71
2023-04-10T18:08:08.849Z,9.70
2023-04-10T18:10:59.020Z,9.66
2023-04-10T18:13:47.446Z,9.75
2023-04-10T18:16:35.126Z,9.68
2023-04-10T18:19:23.015Z,9.48
2023-04-10T18:22:13.554Z,9.60
2023-04-10T18:25:01.369Z,9.37
2023-04-10T18:28:09.797Z,9.30
2023-04-10T18:30:58.550Z,9.54
2023-04-10T18:33:56.236Z,9.30
2023-04-10T18:36:53.393Z,9.55
2023-04-10T18:39:41.416Z,9.32
2023-04-10T18:42:29.296Z,9.47
2023-04-10T18:45:17.214Z,9.47
2023-04-10T18:48:04.990Z,9.46
2023-04-10T18:50:55.305Z,9.43
2023-04-10T18:53:42.970Z,9.50
2023-04-10T18:56:31.286Z,9.42
2023-04-10T18:59:18.910Z,9.42
2023-04-10T19:02:09.118Z,9.40
2023-04-10T19:04:57.148Z,9.14
2023-04-10T19:07:56.558Z,9.42
2023-04-10T19:10:51.133Z,9.49
2023-04-10T19:13:38.776Z,9.30
2023-04-10T19:16:29.309Z,9.38
2023-04-10T19:19:19.249Z,9.30
2023-04-10T19:22:07.016Z,9.22
2023-04-10T19:24:54.721Z,9.09
2023-04-10T19:27:51.416Z,9.35
2023-04-10T19:30:39.112Z,9.35
2023-04-10T19:33:27.146Z,9.34
2023-04-10T19:36:16.695Z,9.02
2023-04-10T19:39:04.988Z,9.38
2023-04-10T19:41:55.742Z,9.42
2023-04-10T19:44:43.586Z,9.34
2023-04-10T19:47:31.372Z,9.35
2023-04-10T19:50:19.335Z,9.28
2023-04-10T19:53:07.404Z,9.48
2023-04-10T19:55:55.260Z,9.34
2023-04-10T19:58:44.978Z,9.39
2023-04-10T20:01:34.424Z,9.33
2023-04-10T20:04:22.281Z,9.38
2023-04-10T20:07:10.173Z,9.21
2023-04-10T20:09:59.076Z,9.31
2023-04-10T20:12:46.813Z,9.25
2023-04-10T20:15:37.474Z,9.36
2023-04-10T20:18:36.593Z,8.76
2023-04-10T20:21:24.908Z,9.16
2023-04-10T20:24:12.602Z,9.30
2023-04-10T20:27:00.170Z,9.27
2023-04-10T20:29:47.892Z,9.22
2023-04-10T20:32:35.621Z,9.24
2023-04-10T20:35:26.246Z,9.25
2023-04-10T20:38:14.014Z,9.10
2023-04-10T20:41:01.675Z,9.16
2023-04-10T20:43:50.435Z,9.22
2023-04-10T20:46:38.478Z,9.27
2023-04-10T20:49:27.929Z,9.32
2023-04-10T20:52:15.711Z,9.31
2023-04-10T20:55:03.785Z,9.35
2023-04-10T20:57:51.494Z,9.24
2023-04-10T21:00:39.992Z,9.24
2023-04-10T21:03:28.075Z,9.23
2023-04-10T21:06:16.992Z,9.17
2023-04-10T21:09:06.302Z,9.01
2023-04-10T21:11:53.935Z,9.20
2023-04-10T21:14:41.682Z,8.96
2023-04-10T21:17:31.648Z,9.24
2023-04-10T21:20:19.528Z,9.22
2023-04-10T21:23:38.154Z,9.21
2023-04-10T21:31:29.188Z,8.99
2023-04-10T21:34:16.962Z,9.00
2023-04-10T21:37:36.836Z,9.11
2023-04-10T21:40:25.135Z,9.20
2023-04-10T21:43:12.805Z,9.01
2023-04-10T21:46:02.661Z,9.11
2023-04-10T21:48:51.020Z,9.18
2023-04-10T21:51:40.975Z,9.16
2023-04-10T21:54:29.079Z,8.97
2023-04-10T21:57:16.834Z,9.09
2023-04-10T22:00:04.867Z,8.97
2023-04-10T22:02:52.937Z,9.04
2023-04-10T22:05:40.949Z,9.10
2023-04-10T22:08:28.650Z,9.05
2023-04-10T22:11:16.265Z,9.01
2023-04-10T22:14:15.388Z,9.06
2023-04-10T22:17:06.854Z,9.08
2023-04-10T22:19:54.616Z,8.92
2023-04-10T22:22:42.371Z,9.05
2023-04-10T22:25:30.042Z,8.99
2023-04-10T22:28:17.860Z,8.96
2023-04-10T22:31:05.825Z,9.10
2023-04-10T22:34:11.913Z,9.24
2023-04-10T22:36:59.605Z,9.30
2023-04-10T22:39:47.267Z,9.29
2023-04-10T22:42:35.051Z,9.34
2023-04-10T22:45:22.684Z,9.22
2023-04-10T22:48:10.515Z,8.93
2023-04-10T22:50:58.197Z,9.10
2023-04-10T22:53:45.963Z,9.06
2023-04-10T22:56:33.639Z,9.15
2023-04-10T22:59:21.328Z,9.15
2023-04-10T23:02:09.139Z,9.18
2023-04-10T23:04:58.579Z,9.13
2023-04-10T23:07:46.227Z,9.10
2023-04-10T23:10:33.956Z,8.91
2023-04-10T23:13:21.791Z,8.98
2023-04-10T23:16:10.292Z,8.82
2023-04-10T23:18:58.092Z,8.66
2023-04-10T23:21:46.024Z,8.82
2023-04-10T23:24:33.655Z,8.81
2023-04-10T23:27:21.645Z,8.85
2023-04-10T23:30:09.419Z,8.80
2023-04-10T23:32:57.913Z,8.82
2023-04-10T23:35:45.853Z,8.66
2023-04-10T23:38:33.641Z,8.67
2023-04-10T23:41:21.761Z,8.84
2023-04-10T23:44:09.388Z,8.87
2023-04-10T23:46:57.057Z,8.90
2023-04-10T23:49:44.832Z,8.70
2023-04-10T23:52:32.608Z,8.69
2023-04-10T23:55:21.898Z,8.95
2023-04-10T23:58:10.292Z,8.88
